createdAt,value
2023-04-09T00:01:30.796Z,88.16
2023-04-09T00:04:01.104Z,87.70
2023-04-09T00:06:31.407Z,87.50
2023-04-09T00:09:01.654Z,87.83
2023-04-09T00:11:34.315Z,87.84
2023-04-09T00:14:04.222Z,87.98
2023-04-09T00:16:34.252Z,87.79
2023-04-09T00:19:04.145Z,87.79
2023-04-09T00:21:34.131Z,87.72
2023-04-09T00:24:03.954Z,87.48
2023-04-09T00:26:37.185Z,87.58
2023-04-09T00:29:07.106Z,87.60
2023-04-09T00:31:37.320Z,87.78
2023-04-09T00:34:07.286Z,88.21
2023-04-09T00:36:37.203Z,88.19
2023-04-09T00:39:07.014Z,87.92
2023-04-09T00:41:39.884Z,88.11
2023-04-09T00:44:09.722Z,87.72
2023-04-09T00:46:40.014Z,87.66
2023-04-09T00:49:10.017Z,87.67
2023-04-09T00:51:40.255Z,87.59
2023-04-09T00:54:10.670Z,87.75
2023-04-09T00:56:44.514Z,87.93
2023-04-09T00:59:14.990Z,88.03
2023-04-09T01:01:44.929Z,87.90
2023-04-09T01:04:14.945Z,87.89
2023-04-09T01:06:52.625Z,87.72
2023-04-09T01:09:30.044Z,87.90
2023-04-09T01:12:13.447Z,87.83
2023-04-09T01:14:52.542Z,88.05
2023-04-09T01:17:27.944Z,88.06
2023-04-09T01:20:05.219Z,87.56
2023-04-09T01:22:48.244Z,88.16
2023-04-09T01:25:28.778Z,88.32
2023-04-09T01:28:19.849Z,88.19
2023-04-09T01:30:53.397Z,88.12
2023-04-09T01:33:25.043Z,88.27
2023-04-09T01:35:56.961Z,87.95
2023-04-09T01:38:28.472Z,88.16
2023-04-09T01:40:59.631Z,88.17
2023-04-09T01:43:33.449Z,88.35
2023-04-09T01:46:05.318Z,88.18
2023-04-09T01:48:36.937Z,87.86
2023-04-09T01:51:07.994Z,88.15
2023-04-09T01:53:37.802Z,87.92
2023-04-09T01:56:08.465Z,88.28
2023-04-09T01:58:41.299Z,88.20
2023-04-09T02:01:16.109Z,88.38
2023-04-09T02:03:50.375Z,88.51
2023-04-09T02:06:29.665Z,88.50
2023-04-09T02:09:04.275Z,88.58
2023-04-09T02:11:37.143Z,88.67
2023-04-09T02:14:11.500Z,88.47
2023-04-09T02:16:42.459Z,88.75
2023-04-09T02:19:12.571Z,88.57
2023-04-09T02:21:42.459Z,88.69
2023-04-09T02:24:12.349Z,88.87
2023-04-09T02:26:42.149Z,88.59
2023-04-09T02:29:14.650Z,88.94
2023-04-09T02:31:45.475Z,88.68
2023-04-09T02:34:15.509Z,88.83
2023-04-09T02:36:45.692Z,88.77
2023-04-09T02:39:15.628Z,88.95
2023-04-09T02:41:45.776Z,88.95
2023-04-09T02:44:18.263Z,89.02
2023-04-09T02:46:50.070Z,88.93
2023-04-09T02:49:20.180Z,89.15
2023-04-09T02:51:50.071Z,89.09
2023-04-09T02:54:19.930Z,89.03
2023-04-09T02:56:49.784Z,89.27
2023-04-09T02:59:22.477Z,89.29
2023-04-09T03:01:52.533Z,89.23
2023-04-09T03:04:22.542Z,89.31
2023-04-09T03:06:52.448Z,89.49
2023-04-09T03:09:22.504Z,89.31
2023-04-09T03:11:52.464Z,89.06
2023-04-09T03:14:25.022Z,89.23
2023-04-09T03:16:55.092Z,89.45
2023-04-09T03:19:25.340Z,89.29
2023-04-09T03:21:55.109Z,89.14
2023-04-09T03:24:25.022Z,88.95
2023-04-09T03:26:54.842Z,89.29
2023-04-09T03:29:27.386Z,89.26
2023-04-09T03:31:57.292Z,89.28
2023-04-09T03:34:27.608Z,89.15
2023-04-09T03:36:57.536Z,89.19
2023-04-09T03:39:31.047Z,89.25
2023-04-09T03:42:02.121Z,89.21
2023-04-09T03:44:34.637Z,89.17
2023-04-09T03:47:04.506Z,89.28
2023-04-09T03:49:34.325Z,89.42
2023-04-09T03:52:04.322Z,89.40
2023-04-09T03:54:34.738Z,89.34
2023-04-09T03:57:04.751Z,89.24
2023-04-09T03:59:37.213Z,89.29
2023-04-09T04:02:07.448Z,88.86
2023-04-09T04:04:37.586Z,88.72
2023-04-09T04:07:08.076Z,88.81
2023-04-09T04:09:37.896Z,88.73
2023-04-09T04:12:08.415Z,88.63
2023-04-09T04:14:41.446Z,88.90
2023-04-09T04:17:11.362Z,88.58
2023-04-09T04:19:41.277Z,88.45
2023-04-09T04:22:11.196Z,88.42
2023-04-09T04:24:41.096Z,88.62
2023-04-09T04:27:10.876Z,88.32
2023-04-09T04:29:43.386Z,88.52
2023-04-09T04:32:13.274Z,88.64
2023-04-09T04:34:43.168Z,88.56
2023-04-09T04:37:13.060Z,88.48
2023-04-09T04:39:42.963Z,88.84
2023-04-09T04:42:12.980Z,88.85
2023-04-09T04:44:48.178Z,88.73
2023-04-09T04:47:19.586Z,88.64
2023-04-09T04:49:49.659Z,88.74
2023-04-09T04:52:19.492Z,88.63
2023-04-09T04:54:49.379Z,88.67
2023-04-09T04:57:19.313Z,88.85
2023-04-09T04:59:51.857Z,88.69
2023-04-09T05:02:21.994Z,88.65
2023-04-09T05:04:51.880Z,88.56
2023-04-09T05:07:21.806Z,88.85
2023-04-09T05:09:51.629Z,88.67
2023-04-09T05:12:21.628Z,88.90
2023-04-09T05:14:54.138Z,88.98
2023-04-09T05:17:24.895Z,89.00
2023-04-09T05:19:55.205Z,89.00
2023-04-09T05:22:25.352Z,88.81
2023-04-09T05:24:55.231Z,89.05
2023-04-09T05:27:26.269Z,88.86
2023-04-09T05:30:00.678Z,89.25
2023-04-09T05:32:31.068Z,89.25
2023-04-09T05:35:00.945Z,89.34
2023-04-09T05:37:31.013Z,89.44
2023-04-09T05:40:00.914Z,89.88
2023-04-09T05:42:30.801Z,89.82
2023-04-09T05:45:03.412Z,89.82
2023-04-09T05:47:33.342Z,89.66
2023-04-09T05:50:03.444Z,89.61
2023-04-09T05:52:33.302Z,89.64
2023-04-09T05:55:03.814Z,89.59
2023-04-09T05:57:33.744Z,89.73
2023-04-09T06:00:06.622Z,89.91
2023-04-09T06:02:36.741Z,90.05
2023-04-09T06:05:07.005Z,90.41
2023-04-09T06:07:36.816Z,90.73
2023-04-09T06:10:07.296Z,90.67
2023-04-09T06:12:48.310Z,90.71
2023-04-09T06:15:21.806Z,90.98
2023-04-09T06:17:51.837Z,90.88
2023-04-09T06:20:21.982Z,91.35
2023-04-09T06:22:51.824Z,91.33
2023-04-09T06:25:22.235Z,91.37
2023-04-09T06:27:52.136Z,91.77
2023-04-09T06:30:24.935Z,92.16
2023-04-09T06:32:55.615Z,91.37
2023-04-09T06:35:27.247Z,91.79
2023-04-09T06:37:57.137Z,92.00
2023-04-09T06:40:33.299Z,92.30
2023-04-09T06:43:03.211Z,91.95
2023-04-09T06:45:36.140Z,92.09
2023-04-09T06:48:07.320Z,91.79
2023-04-09T06:50:37.337Z,91.26
2023-04-09T06:53:07.403Z,91.00
2023-04-09T06:55:37.348Z,90.66
2023-04-09T06:58:07.263Z,90.10
2023-04-09T07:00:39.890Z,89.48
2023-04-09T07:03:10.095Z,89.13
2023-04-09T07:05:40.065Z,88.57
2023-04-09T07:08:10.208Z,87.56
2023-04-09T07:10:40.225Z,87.51
2023-04-09T07:13:10.785Z,87.09
2023-04-09T07:15:43.719Z,86.11
2023-04-09T07:18:14.026Z,85.33
2023-04-09T07:20:44.377Z,83.87
2023-04-09T07:23:14.697Z,82.48
2023-04-09T07:25:44.617Z,82.22
2023-04-09T07:28:14.975Z,82.13
2023-04-09T07:30:47.645Z,79.01
2023-04-09T07:33:17.780Z,78.66
2023-04-09T07:35:47.927Z,79.75
2023-04-09T07:38:17.806Z,77.96
2023-04-09T07:40:47.816Z,75.16
2023-04-09T07:43:17.870Z,75.79
2023-04-09T07:45:54.095Z,75.74
2023-04-09T07:48:28.382Z,76.49
2023-04-09T07:50:58.254Z,73.53
2023-04-09T07:53:28.696Z,72.49
2023-04-09T07:55:58.784Z,71.38
2023-04-09T07:58:28.713Z,69.51
2023-04-09T08:01:01.314Z,69.32
2023-04-09T08:03:31.656Z,71.08
2023-04-09T08:06:01.931Z,72.03
2023-04-09T08:08:31.932Z,68.87
2023-04-09T08:11:01.863Z,62.37
2023-04-09T08:13:31.779Z,65.70
2023-04-09T08:16:07.108Z,64.90
2023-04-09T08:18:37.336Z,66.36
2023-04-09T08:21:08.424Z,66.08
2023-04-09T08:23:38.331Z,66.22
2023-04-09T08:26:08.641Z,65.19
2023-04-09T08:28:38.636Z,63.96
2023-04-09T08:31:12.605Z,60.57
2023-04-09T08:33:43.169Z,62.51
2023-04-09T08:36:13.157Z,63.60
2023-04-09T08:38:45.354Z,63.63
2023-04-09T08:41:21.705Z,63.03
2023-04-09T08:43:57.659Z,62.75
2023-04-09T08:46:31.661Z,60.92
2023-04-09T08:49:01.879Z,58.87
2023-04-09T08:51:32.223Z,59.39
2023-04-09T08:54:04.723Z,58.81
2023-04-09T08:56:35.380Z,57.20
2023-04-09T08:59:05.687Z,54.62
2023-04-09T09:01:38.823Z,54.73
2023-04-09T09:04:10.834Z,56.11
2023-04-09T09:06:41.931Z,55.45
2023-04-09T09:09:13.310Z,56.00
2023-04-09T09:11:44.868Z,55.63
2023-04-09T09:14:16.516Z,57.39
2023-04-09T09:17:09.143Z,53.50
2023-04-09T09:19:39.651Z,54.69
2023-04-09T09:22:12.789Z,50.57
2023-04-09T09:24:50.629Z,52.50
2023-04-09T09:27:37.307Z,51.81
2023-04-09T09:30:08.794Z,51.44
2023-04-09T09:32:42.755Z,52.01
2023-04-09T09:35:12.821Z,53.51
2023-04-09T09:37:43.135Z,49.57
2023-04-09T09:40:14.675Z,51.76
2023-04-09T09:42:58.342Z,46.62
2023-04-09T09:45:28.882Z,50.05
2023-04-09T09:48:01.943Z,50.32
2023-04-09T09:50:33.874Z,50.41
2023-04-09T09:53:07.842Z,49.17
2023-04-09T09:55:43.422Z,52.04
2023-04-09T09:58:20.388Z,52.34
2023-04-09T10:00:51.769Z,53.07
2023-04-09T10:03:29.274Z,52.47
2023-04-09T10:06:00.705Z,49.42
2023-04-09T10:08:34.341Z,50.44
2023-04-09T10:11:04.699Z,50.92
2023-04-09T10:13:38.892Z,50.86
2023-04-09T10:16:10.214Z,51.47
2023-04-09T10:18:43.939Z,48.61
2023-04-09T10:21:27.433Z,46.63
2023-04-09T10:23:58.433Z,49.27
2023-04-09T10:26:31.201Z,48.40
2023-04-09T10:29:14.768Z,47.58
2023-04-09T10:32:09.313Z,46.60
2023-04-09T10:34:44.029Z,46.50
2023-04-09T10:37:22.941Z,46.38
2023-04-09T10:39:54.683Z,47.39
2023-04-09T10:42:27.930Z,44.23
2023-04-09T10:45:20.650Z,47.58
2023-04-09T10:47:54.321Z,49.02
2023-04-09T10:50:29.541Z,46.07
2023-04-09T10:53:00.995Z,47.95
2023-04-09T10:55:36.372Z,48.28
2023-04-09T10:58:09.030Z,47.30
2023-04-09T11:00:41.506Z,46.93
2023-04-09T11:03:23.662Z,46.93
2023-04-09T11:06:01.249Z,45.51
2023-04-09T11:08:35.767Z,46.59
2023-04-09T11:11:06.156Z,47.28
2023-04-09T11:13:37.009Z,46.16
2023-04-09T11:16:07.628Z,47.38
2023-04-09T11:18:37.998Z,48.24
2023-04-09T11:21:10.682Z,47.55
2023-04-09T11:23:40.634Z,48.56
2023-04-09T11:26:12.557Z,49.00
2023-04-09T11:28:46.178Z,48.68
2023-04-09T11:31:16.869Z,46.72
2023-04-09T11:33:49.539Z,46.04
2023-04-09T11:36:22.009Z,46.68
2023-04-09T11:38:52.459Z,47.58
2023-04-09T11:41:22.562Z,45.94
2023-04-09T11:43:55.090Z,44.02
2023-04-09T11:46:26.312Z,44.04
2023-04-09T11:48:57.170Z,45.70
2023-04-09T11:51:31.395Z,45.24
2023-04-09T11:54:05.215Z,46.32
2023-04-09T11:56:36.398Z,43.99
2023-04-09T11:59:06.865Z,44.48
2023-04-09T12:01:37.195Z,45.18
2023-04-09T12:04:08.468Z,43.88
2023-04-09T12:06:43.801Z,45.05
2023-04-09T12:09:14.389Z,43.93
2023-04-09T12:11:47.387Z,43.95
2023-04-09T12:14:19.151Z,44.90
2023-04-09T12:16:49.030Z,45.46
2023-04-09T12:19:20.401Z,44.42
2023-04-09T12:21:55.907Z,42.33
2023-04-09T12:24:29.160Z,42.61
2023-04-09T12:26:59.412Z,43.08
2023-04-09T12:29:30.118Z,44.24
2023-04-09T12:32:00.452Z,44.48
2023-04-09T12:34:30.734Z,43.68
2023-04-09T12:37:03.188Z,42.86
2023-04-09T12:39:34.413Z,42.22
2023-04-09T12:42:04.632Z,42.83
2023-04-09T12:44:34.431Z,42.60
2023-04-09T12:47:04.518Z,43.64
2023-04-09T12:49:34.229Z,42.42
2023-04-09T12:52:07.302Z,40.91
2023-04-09T12:54:37.176Z,41.67
2023-04-09T12:57:07.301Z,43.72
2023-04-09T12:59:37.155Z,43.49
2023-04-09T13:02:08.166Z,43.62
2023-04-09T13:04:38.294Z,45.01
2023-04-09T13:07:12.226Z,44.03
2023-04-09T13:09:42.015Z,43.97
2023-04-09T13:12:12.019Z,44.05
2023-04-09T13:14:42.773Z,44.11
2023-04-09T13:17:12.744Z,42.44
2023-04-09T13:19:43.000Z,43.57
2023-04-09T13:22:15.719Z,42.54
2023-04-09T13:24:46.171Z,41.39
2023-04-09T13:27:17.675Z,43.01
2023-04-09T13:29:47.530Z,42.39
2023-04-09T13:32:18.518Z,40.39
2023-04-09T13:34:48.292Z,40.21
2023-04-09T13:37:20.770Z,42.28
2023-04-09T13:39:50.650Z,41.96
2023-04-09T13:42:20.555Z,43.10
2023-04-09T13:44:50.427Z,43.96
2023-04-09T13:47:21.449Z,42.94
2023-04-09T13:49:51.699Z,43.75
2023-04-09T13:52:24.658Z,42.81
2023-04-09T13:54:56.414Z,42.54
2023-04-09T13:57:26.310Z,43.08
2023-04-09T13:59:56.288Z,44.03
2023-04-09T14:02:26.503Z,42.09
2023-04-09T14:04:57.168Z,42.86
2023-04-09T14:07:29.613Z,43.00
2023-04-09T14:09:59.545Z,42.82
2023-04-09T14:12:29.455Z,42.57
2023-04-09T14:14:59.350Z,43.04
2023-04-09T14:17:29.719Z,41.82
2023-04-09T14:20:00.321Z,40.99
2023-04-09T14:22:33.305Z,41.29
2023-04-09T14:25:03.163Z,42.31
2023-04-09T14:27:33.413Z,42.67
2023-04-09T14:30:03.918Z,41.41
2023-04-09T14:32:33.901Z,41.95
2023-04-09T14:35:06.661Z,43.61
2023-04-09T14:37:41.079Z,41.41
2023-04-09T14:40:12.036Z,41.13
2023-04-09T14:42:42.231Z,41.73
2023-04-09T14:45:13.318Z,41.37
2023-04-09T14:47:43.119Z,40.98
2023-04-09T14:50:13.932Z,41.78
2023-04-09T14:52:48.384Z,41.64
2023-04-09T14:55:18.719Z,41.35
2023-04-09T14:57:48.605Z,41.18
2023-04-09T15:00:19.187Z,41.09
2023-04-09T15:02:49.206Z,42.47
2023-04-09T15:05:19.226Z,41.96
2023-04-09T15:07:51.948Z,41.89
2023-04-09T15:10:22.339Z,43.01
2023-04-09T15:12:52.200Z,41.04
2023-04-09T15:15:22.118Z,40.86
2023-04-09T15:17:52.383Z,40.38
2023-04-09T15:20:22.314Z,40.10
2023-04-09T15:22:54.630Z,40.52
2023-04-09T15:25:24.762Z,41.49
2023-04-09T15:27:55.730Z,42.11
2023-04-09T15:30:26.706Z,41.97
2023-04-09T15:32:56.696Z,41.40
2023-04-09T15:35:29.575Z,42.10
2023-04-09T15:38:02.036Z,42.41
2023-04-09T15:40:32.267Z,42.76
2023-04-09T15:43:02.265Z,43.10
2023-04-09T15:45:32.154Z,40.26
2023-04-09T15:48:01.994Z,41.95
2023-04-09T15:50:32.084Z,42.73
2023-04-09T15:53:04.534Z,43.17
2023-04-09T15:55:34.993Z,41.40
2023-04-09T15:58:04.770Z,42.75
2023-04-09T16:00:34.706Z,42.54
2023-04-09T16:03:07.674Z,42.14
2023-04-09T16:05:37.489Z,42.47
2023-04-09T16:08:10.320Z,41.82
2023-04-09T16:10:40.374Z,43.21
2023-04-09T16:13:11.724Z,42.90
2023-04-09T16:15:42.041Z,42.72
2023-04-09T16:18:12.612Z,42.98
2023-04-09T16:20:42.466Z,41.92
2023-04-09T16:23:14.908Z,40.88
2023-04-09T16:25:44.895Z,41.83
2023-04-09T16:28:14.752Z,42.04
2023-04-09T16:30:44.659Z,40.13
2023-04-09T16:33:15.518Z,42.00
2023-04-09T16:35:45.606Z,41.48
2023-04-09T16:38:17.974Z,41.90
2023-04-09T16:40:48.015Z,42.44
2023-04-09T16:43:17.859Z,42.87
2023-04-09T16:45:47.687Z,42.80
2023-04-09T16:48:17.565Z,42.58
2023-04-09T16:50:47.423Z,41.87
2023-04-09T16:53:19.918Z,42.26
2023-04-09T16:55:50.197Z,41.59
2023-04-09T16:58:20.135Z,42.70
2023-04-09T17:00:51.863Z,42.28
2023-04-09T17:03:22.622Z,43.29
2023-04-09T17:05:52.555Z,41.62
2023-04-09T17:08:25.386Z,43.00
2023-04-09T17:11:02.251Z,43.25
2023-04-09T17:13:33.101Z,43.92
2023-04-09T17:16:02.965Z,43.15
2023-04-09T17:18:33.030Z,43.36
2023-04-09T17:21:02.917Z,43.92
2023-04-09T17:23:36.886Z,44.14
2023-04-09T17:26:07.060Z,43.97
2023-04-09T17:28:36.947Z,44.02
2023-04-09T17:31:07.084Z,43.76
2023-04-09T17:33:37.061Z,44.21
2023-04-09T17:36:07.295Z,44.60
2023-04-09T17:38:39.895Z,44.52
2023-04-09T17:41:10.106Z,45.05
2023-04-09T17:43:40.007Z,44.59
2023-04-09T17:46:10.339Z,44.97
2023-04-09T17:48:40.405Z,45.33
2023-04-09T17:51:10.631Z,45.13
2023-04-09T17:53:43.090Z,45.53
2023-04-09T17:56:18.267Z,44.92
2023-04-09T17:58:48.252Z,45.74
2023-04-09T18:01:18.181Z,45.62
2023-04-09T18:03:48.777Z,45.79
2023-04-09T18:06:18.804Z,46.33
2023-04-09T18:08:52.703Z,47.39
2023-04-09T18:11:26.513Z,47.88
2023-04-09T18:13:56.611Z,48.74
2023-04-09T18:16:26.573Z,48.57
2023-04-09T18:18:56.550Z,49.52
2023-04-09T18:21:27.249Z,49.84
2023-04-09T18:23:59.918Z,50.36
2023-04-09T18:26:29.778Z,50.36
2023-04-09T18:29:01.033Z,50.63
2023-04-09T18:31:31.593Z,50.61
2023-04-09T18:34:01.535Z,51.40
2023-04-09T18:36:31.516Z,51.95
2023-04-09T18:39:05.108Z,52.09
2023-04-09T18:41:34.984Z,52.27
2023-04-09T18:44:04.829Z,52.74
2023-04-09T18:46:34.807Z,52.88
2023-04-09T18:49:04.815Z,53.34
2023-04-09T18:51:34.718Z,53.68
2023-04-09T18:54:07.360Z,53.97
2023-04-09T18:56:37.308Z,53.99
2023-04-09T18:59:07.194Z,54.61
2023-04-09T19:01:37.604Z,54.40
2023-04-09T19:04:07.763Z,55.26
2023-04-09T19:06:38.564Z,55.36
2023-04-09T19:09:11.034Z,55.27
2023-04-09T19:11:40.887Z,55.58
2023-04-09T19:14:10.694Z,55.64
2023-04-09T19:16:41.125Z,55.99
2023-04-09T19:19:10.919Z,56.02
2023-04-09T19:21:41.373Z,56.41
2023-04-09T19:24:13.789Z,56.87
2023-04-09T19:26:43.670Z,56.92
2023-04-09T19:29:13.562Z,56.97
2023-04-09T19:31:44.168Z,57.20
2023-04-09T19:34:15.035Z,57.79
2023-04-09T19:36:44.971Z,57.50
2023-04-09T19:39:17.777Z,58.18
2023-04-09T19:41:47.564Z,57.93
2023-04-09T19:44:17.455Z,58.19
2023-04-09T19:46:47.526Z,58.79
2023-04-09T19:49:17.827Z,58.68
2023-04-09T19:51:47.788Z,58.84
2023-04-09T19:54:20.511Z,59.07
2023-04-09T19:56:50.385Z,59.06
2023-04-09T19:59:20.362Z,59.39
2023-04-09T20:01:51.095Z,59.39
2023-04-09T20:04:24.731Z,59.58
2023-04-09T20:06:55.473Z,59.76
2023-04-09T20:09:29.327Z,60.22
2023-04-09T20:12:04.492Z,60.11
2023-04-09T20:14:34.644Z,60.30
2023-04-09T20:17:04.768Z,60.30
2023-04-09T20:19:34.779Z,60.59
2023-04-09T20:22:04.920Z,60.40
2023-04-09T20:24:38.566Z,60.64
2023-04-09T20:27:08.437Z,61.14
2023-04-09T20:29:38.544Z,61.26
2023-04-09T20:32:08.904Z,61.25
2023-04-09T20:34:38.833Z,61.17
2023-04-09T20:37:08.740Z,61.38
2023-04-09T20:39:41.960Z,61.60
2023-04-09T20:42:11.811Z,62.04
2023-04-09T20:44:42.078Z,62.31
2023-04-09T20:47:12.104Z,62.27
2023-04-09T20:49:43.222Z,62.50
2023-04-09T20:52:13.200Z,62.52
2023-04-09T20:54:46.092Z,62.39
2023-04-09T20:57:16.027Z,62.69
2023-04-09T20:59:45.833Z,62.85
2023-04-09T21:02:15.894Z,63.25
2023-04-09T21:04:45.849Z,62.93
2023-04-09T21:07:15.839Z,63.33
2023-04-09T21:09:48.451Z,63.36
2023-04-09T21:12:18.446Z,63.32
2023-04-09T21:14:48.620Z,63.20
2023-04-09T21:17:18.526Z,63.41
2023-04-09T21:19:49.493Z,63.58
2023-04-09T21:22:19.361Z,63.25
2023-04-09T21:24:54.415Z,63.98
2023-04-09T21:27:24.253Z,63.63
2023-04-09T21:29:54.766Z,63.60
2023-04-09T21:32:25.390Z,63.73
2023-04-09T21:34:55.606Z,64.07
2023-04-09T21:37:25.538Z,64.04
2023-04-09T21:39:57.961Z,64.49
2023-04-09T21:42:27.793Z,64.45
2023-04-09T21:44:57.736Z,64.78
2023-04-09T21:47:28.241Z,64.69
2023-04-09T21:49:58.942Z,64.89
2023-04-09T21:52:28.968Z,65.16
2023-04-09T21:55:01.368Z,65.23
2023-04-09T21:57:31.178Z,65.37
2023-04-09T22:00:02.109Z,65.52
2023-04-09T22:02:32.112Z,65.43
2023-04-09T22:05:02.863Z,65.67
2023-04-09T22:07:32.846Z,65.86
2023-04-09T22:10:05.522Z,65.92
2023-04-09T22:12:37.355Z,66.02
2023-04-09T22:15:08.807Z,65.95
2023-04-09T22:17:38.923Z,66.21
2023-04-09T22:20:10.413Z,66.40
2023-04-09T22:22:42.291Z,66.57
2023-04-09T22:25:15.949Z,66.97
2023-04-09T22:27:46.060Z,66.63
2023-04-09T22:30:16.057Z,66.87
2023-04-09T22:32:46.043Z,66.92
2023-04-09T22:35:18.345Z,67.10
2023-04-09T22:37:48.865Z,67.13
2023-04-09T22:40:21.675Z,67.51
2023-04-09T22:42:51.688Z,67.34
2023-04-09T22:45:22.195Z,67.27
2023-04-09T22:47:52.062Z,67.65
2023-04-09T22:50:22.637Z,67.98
2023-04-09T22:52:54.612Z,68.13
2023-04-09T22:55:27.596Z,68.59
2023-04-09T22:57:58.348Z,68.54
2023-04-09T23:00:28.437Z,68.46
2023-04-09T23:02:58.604Z,68.58
2023-04-09T23:05:28.663Z,68.73
2023-04-09T23:07:58.455Z,68.78
2023-04-09T23:10:31.057Z,68.98
2023-04-09T23:13:00.860Z,69.16
2023-04-09T23:15:31.344Z,69.02
2023-04-09T23:18:01.337Z,69.30
2023-04-09T23:20:34.115Z,69.42
2023-04-09T23:23:04.009Z,69.29
2023-04-09T23:25:36.802Z,69.34
2023-04-09T23:28:06.678Z,69.33
2023-04-09T23:30:36.913Z,69.29
2023-04-09T23:33:07.214Z,69.59
2023-04-09T23:35:37.083Z,69.59
2023-04-09T23:38:07.036Z,69.84
2023-04-09T23:40:39.604Z,69.84
2023-04-09T23:43:09.409Z,69.91
2023-04-09T23:45:39.252Z,69.99
2023-04-09T23:48:10.391Z,70.32
2023-04-09T23:50:41.315Z,70.38
2023-04-09T23:53:11.725Z,70.44
2023-04-09T23:55:45.512Z,70.47
2023-04-09T23:58:15.391Z,70.61
